createdAt,value
2023-03-02T00:01:52.624Z,1.60
2023-03-02T00:04:45.792Z,1.60
2023-03-02T00:07:16.966Z,1.60
2023-03-02T00:09:44.572Z,1.62
2023-03-02T00:12:13.086Z,1.65
2023-03-02T00:14:40.439Z,1.64
2023-03-02T00:17:10.940Z,1.64
2023-03-02T00:19:39.060Z,1.64
2023-03-02T00:22:06.610Z,1.65
2023-03-02T00:24:33.950Z,1.64
2023-03-02T00:27:01.218Z,1.62
2023-03-02T00:29:29.607Z,1.62
2023-03-02T00:31:57.152Z,1.61
2023-03-02T00:34:24.400Z,1.58
2023-03-02T00:36:51.582Z,1.55
2023-03-02T00:39:20.296Z,1.55
2023-03-02T00:41:48.712Z,1.53
2023-03-02T00:44:19.743Z,1.50
2023-03-02T00:46:47.087Z,1.48
2023-03-02T00:49:14.860Z,1.47
2023-03-02T00:51:42.055Z,1.44
2023-03-02T00:54:09.530Z,1.44
2023-03-02T00:56:37.261Z,1.43
2023-03-02T00:59:11.185Z,1.43
2023-03-02T01:01:38.878Z,1.44
2023-03-02T01:04:06.285Z,1.46
2023-03-02T01:06:33.913Z,1.47
2023-03-02T01:09:03.239Z,1.47
2023-03-02T01:11:30.544Z,1.48
2023-03-02T01:13:57.808Z,1.50
2023-03-02T01:16:25.066Z,1.48
2023-03-02T01:18:52.307Z,1.49
2023-03-02T01:21:19.647Z,1.46
2023-03-02T01:23:46.879Z,1.47
2023-03-02T01:26:14.124Z,1.44
2023-03-02T01:28:41.529Z,1.45
2023-03-02T01:31:08.839Z,1.45
2023-03-02T01:33:36.430Z,1.45
2023-03-02T01:36:04.217Z,1.46
2023-03-02T01:38:31.554Z,1.45
2023-03-02T01:40:59.003Z,1.43
2023-03-02T01:43:26.567Z,1.44
2023-03-02T01:45:57.414Z,1.45
2023-03-02T01:48:46.080Z,1.42
2023-03-02T01:51:21.142Z,1.41
2023-03-02T01:53:54.549Z,1.41
2023-03-02T01:56:34.963Z,1.39
2023-03-02T01:59:07.737Z,1.38
2023-03-02T02:01:37.689Z,1.38
2023-03-02T02:04:06.462Z,1.38
2023-03-02T02:06:54.189Z,1.39
2023-03-02T02:09:24.396Z,1.35
2023-03-02T02:11:52.582Z,1.31
2023-03-02T02:14:20.354Z,1.29
2023-03-02T02:16:48.755Z,1.28
2023-03-02T02:19:38.536Z,1.27
2023-03-02T02:22:06.176Z,1.25
2023-03-02T02:24:45.237Z,1.23
2023-03-02T02:27:13.671Z,1.25
2023-03-02T02:29:49.623Z,1.26
2023-03-02T02:32:26.636Z,1.28
2023-03-02T02:35:01.151Z,1.27
2023-03-02T02:37:32.336Z,1.26
2023-03-02T02:40:07.333Z,1.21
2023-03-02T02:42:43.466Z,1.17
2023-03-02T02:45:24.394Z,1.13
2023-03-02T02:47:52.499Z,1.11
2023-03-02T02:50:30.991Z,1.08
2023-03-02T02:53:06.521Z,1.06
2023-03-02T02:55:35.516Z,1.06
2023-03-02T02:58:10.226Z,1.03
2023-03-02T03:00:37.771Z,1.02
2023-03-02T03:03:29.467Z,0.96
2023-03-02T03:06:01.661Z,0.90
2023-03-02T03:09:00.894Z,0.85
2023-03-02T03:11:49.021Z,0.81
2023-03-02T03:14:20.188Z,0.84
2023-03-02T03:16:51.103Z,0.83
2023-03-02T03:19:18.629Z,0.81
2023-03-02T03:21:48.961Z,0.83
2023-03-02T03:24:16.804Z,0.85
2023-03-02T03:26:44.422Z,0.83
2023-03-02T03:29:14.239Z,0.86
2023-03-02T03:31:41.817Z,0.80
2023-03-02T03:34:10.253Z,0.79
2023-03-02T03:36:38.445Z,0.77
2023-03-02T03:39:06.565Z,0.76
2023-03-02T03:41:34.872Z,0.77
2023-03-02T03:44:03.495Z,0.73
2023-03-02T03:46:34.202Z,0.72
2023-03-02T03:49:02.518Z,0.72
2023-03-02T03:51:35.162Z,0.72
2023-03-02T03:54:06.061Z,0.74
2023-03-02T03:56:44.938Z,0.78
2023-03-02T03:59:23.348Z,0.78
2023-03-02T04:01:58.646Z,0.80
2023-03-02T04:04:33.468Z,0.81
2023-03-02T04:07:03.299Z,0.82
2023-03-02T04:09:32.321Z,0.80
2023-03-02T04:11:59.996Z,0.81
2023-03-02T04:14:28.188Z,0.80
2023-03-02T04:16:56.529Z,0.78
2023-03-02T04:19:26.173Z,0.78
2023-03-02T04:21:58.476Z,0.75
2023-03-02T04:24:29.258Z,0.71
2023-03-02T04:26:59.875Z,0.73
2023-03-02T04:29:27.461Z,0.74
2023-03-02T04:31:55.060Z,0.75
2023-03-02T04:34:25.678Z,0.73
2023-03-02T04:36:54.350Z,0.71
2023-03-02T04:39:22.324Z,0.71
2023-03-02T04:41:52.827Z,0.70
2023-03-02T04:44:20.652Z,0.72
2023-03-02T04:46:49.643Z,0.69
2023-03-02T04:49:19.115Z,0.70
2023-03-02T04:51:48.403Z,0.69
2023-03-02T04:54:22.274Z,0.69
2023-03-02T04:56:51.625Z,0.66
2023-03-02T04:59:20.991Z,0.62
2023-03-02T05:01:49.578Z,0.63
2023-03-02T05:04:16.984Z,0.66
2023-03-02T05:06:44.612Z,0.67
2023-03-02T05:09:12.264Z,0.67
2023-03-02T05:11:41.147Z,0.65
2023-03-02T05:14:11.894Z,0.62
2023-03-02T05:16:41.540Z,0.56
2023-03-02T05:19:11.533Z,0.53
2023-03-02T05:21:39.493Z,0.49
2023-03-02T05:24:07.090Z,0.51
2023-03-02T05:26:34.651Z,0.48
2023-03-02T05:29:02.086Z,0.47
2023-03-02T05:31:55.869Z,0.45
2023-03-02T05:34:23.202Z,0.43
2023-03-02T05:36:51.815Z,0.43
2023-03-02T05:39:19.271Z,0.41
2023-03-02T05:41:46.542Z,0.35
2023-03-02T05:44:13.874Z,0.32
2023-03-02T05:46:41.693Z,0.31
2023-03-02T05:49:09.103Z,0.30
2023-03-02T05:51:36.330Z,0.31
2023-03-02T05:54:03.757Z,0.32
2023-03-02T05:56:31.507Z,0.33
2023-03-02T05:58:59.032Z,0.35
2023-03-02T06:01:26.289Z,0.38
2023-03-02T06:03:53.540Z,0.37
2023-03-02T06:06:20.791Z,0.30
2023-03-02T06:08:48.244Z,0.25
2023-03-02T06:11:15.495Z,0.24
2023-03-02T06:13:42.712Z,0.27
2023-03-02T06:16:10.818Z,0.27
2023-03-02T06:18:41.232Z,0.26
2023-03-02T06:21:09.008Z,0.27
2023-03-02T06:23:36.431Z,0.30
2023-03-02T06:26:12.090Z,0.36
2023-03-02T06:28:51.500Z,0.42
2023-03-02T06:31:19.995Z,0.44
2023-03-02T06:33:47.323Z,0.47
2023-03-02T06:36:17.370Z,0.46
2023-03-02T06:38:44.671Z,0.41
2023-03-02T06:41:11.993Z,0.39
2023-03-02T06:43:39.813Z,0.33
2023-03-02T06:46:07.210Z,0.31
2023-03-02T06:48:34.586Z,0.24
2023-03-02T06:51:01.943Z,0.20
2023-03-02T06:53:29.691Z,0.15
2023-03-02T06:55:57.061Z,0.08
2023-03-02T06:58:24.535Z,0.03
2023-03-02T07:00:51.886Z,0.03
2023-03-02T07:03:19.258Z,0.05
2023-03-02T07:05:48.973Z,0.07
2023-03-02T07:08:16.478Z,0.09
2023-03-02T07:10:43.938Z,0.11
2023-03-02T07:13:11.238Z,0.09
2023-03-02T07:15:41.730Z,0.07
2023-03-02T07:18:09.137Z,0.01
2023-03-02T07:20:36.699Z,-0.03
2023-03-02T07:23:05.446Z,-0.05
2023-03-02T07:25:33.590Z,-0.12
2023-03-02T07:28:00.844Z,-0.14
2023-03-02T07:30:28.358Z,-0.12
2023-03-02T07:32:55.675Z,-0.11
2023-03-02T07:35:23.144Z,-0.08
2023-03-02T07:37:52.275Z,-0.06
2023-03-02T07:40:20.599Z,-0.01
2023-03-02T07:42:47.900Z,0.01
2023-03-02T07:45:16.937Z,0.04
2023-03-02T07:47:44.256Z,0.09
2023-03-02T07:50:12.437Z,0.11
2023-03-02T07:52:40.106Z,0.14
2023-03-02T07:55:07.798Z,0.21
2023-03-02T07:57:35.273Z,0.27
2023-03-02T08:00:04.055Z,0.25
2023-03-02T08:02:41.072Z,0.25
2023-03-02T08:05:09.871Z,0.29
2023-03-02T08:07:37.570Z,0.28
2023-03-02T08:10:05.713Z,0.28
2023-03-02T08:12:35.750Z,0.31
2023-03-02T08:15:04.950Z,0.38
2023-03-02T08:17:32.824Z,0.48
2023-03-02T08:20:00.239Z,0.57
2023-03-02T08:22:27.566Z,0.58
2023-03-02T08:24:54.970Z,0.56
2023-03-02T08:27:23.523Z,0.60
2023-03-02T08:29:50.915Z,0.65
2023-03-02T08:32:18.345Z,0.63
2023-03-02T08:34:45.874Z,0.60
2023-03-02T08:37:13.111Z,0.62
2023-03-02T08:39:40.332Z,0.57
2023-03-02T08:42:08.222Z,0.57
2023-03-02T08:44:35.727Z,0.60
2023-03-02T08:47:03.191Z,0.63
2023-03-02T08:49:30.811Z,0.71
2023-03-02T08:51:59.474Z,0.75
2023-03-02T08:54:29.345Z,0.70
2023-03-02T08:56:56.618Z,0.66
2023-03-02T08:59:24.069Z,0.66
2023-03-02T09:01:53.055Z,0.66
2023-03-02T09:04:20.401Z,0.69
2023-03-02T09:06:48.658Z,0.76
2023-03-02T09:09:15.945Z,0.83
2023-03-02T09:11:44.857Z,0.95
2023-03-02T09:14:12.888Z,1.05
2023-03-02T09:16:40.278Z,1.16
2023-03-02T09:19:07.630Z,1.26
2023-03-02T09:21:35.444Z,1.29
2023-03-02T09:24:03.139Z,1.40
2023-03-02T09:26:30.591Z,1.44
2023-03-02T09:28:57.884Z,1.53
2023-03-02T09:31:25.399Z,1.63
2023-03-02T09:33:52.861Z,1.71
2023-03-02T09:36:23.736Z,1.74
2023-03-02T09:38:51.587Z,1.77
2023-03-02T09:41:21.850Z,1.77
2023-03-02T09:44:31.341Z,1.72
2023-03-02T09:47:34.840Z,1.73
2023-03-02T09:50:11.699Z,1.72
2023-03-02T09:52:49.069Z,1.75
2023-03-02T09:55:25.218Z,1.81
2023-03-02T09:57:55.036Z,1.90
2023-03-02T10:00:29.139Z,1.97
2023-03-02T10:03:16.197Z,2.03
2023-03-02T10:05:50.411Z,2.10
2023-03-02T10:08:46.883Z,2.11
2023-03-02T10:11:39.650Z,2.12
2023-03-02T10:14:23.637Z,2.14
2023-03-02T10:17:28.498Z,2.20
2023-03-02T10:20:14.883Z,2.26
2023-03-02T10:22:50.534Z,2.28
2023-03-02T10:25:43.614Z,2.34
2023-03-02T10:28:19.205Z,2.46
2023-03-02T10:31:00.956Z,2.55
2023-03-02T10:33:29.527Z,2.57
2023-03-02T10:35:56.787Z,2.61
2023-03-02T10:38:25.230Z,2.61
2023-03-02T10:41:00.463Z,2.66
2023-03-02T10:43:32.229Z,2.56
2023-03-02T10:46:04.932Z,2.51
2023-03-02T10:48:32.291Z,2.52
2023-03-02T10:51:00.566Z,2.51
2023-03-02T10:53:29.250Z,2.53
2023-03-02T10:55:56.594Z,2.54
2023-03-02T10:58:32.931Z,2.55
2023-03-02T11:01:15.077Z,2.57
2023-03-02T11:03:42.603Z,2.68
2023-03-02T11:06:29.786Z,2.82
2023-03-02T11:09:00.185Z,2.93
2023-03-02T11:11:27.843Z,2.95
2023-03-02T11:13:56.882Z,3.03
2023-03-02T11:16:32.491Z,3.10
2023-03-02T11:19:32.062Z,3.18
2023-03-02T11:22:37.317Z,3.26
2023-03-02T11:25:12.746Z,3.22
2023-03-02T11:27:43.163Z,3.27
2023-03-02T11:30:16.074Z,3.36
2023-03-02T11:32:54.604Z,3.42
2023-03-02T11:35:28.896Z,3.44
2023-03-02T11:38:04.276Z,3.48
2023-03-02T11:40:47.147Z,3.53
2023-03-02T11:43:15.072Z,3.56
2023-03-02T11:45:51.337Z,3.65
2023-03-02T11:48:29.339Z,3.85
2023-03-02T11:51:06.746Z,4.04
2023-03-02T11:53:43.847Z,4.22
2023-03-02T11:56:11.335Z,4.33
2023-03-02T11:58:39.719Z,4.34
2023-03-02T12:01:13.043Z,4.36
2023-03-02T12:03:41.959Z,4.39
2023-03-02T12:06:22.770Z,4.44
2023-03-02T12:08:53.112Z,4.46
2023-03-02T12:11:20.427Z,4.53
2023-03-02T12:14:02.198Z,4.62
2023-03-02T12:16:41.646Z,4.69
2023-03-02T12:19:17.993Z,4.73
2023-03-02T12:22:00.771Z,4.83
2023-03-02T12:24:31.608Z,4.90
2023-03-02T12:27:25.733Z,4.89
2023-03-02T12:30:23.754Z,4.97
2023-03-02T12:33:03.985Z,5.07
2023-03-02T12:35:34.042Z,5.11
2023-03-02T12:38:07.366Z,5.18
2023-03-02T12:40:56.201Z,5.14
2023-03-02T12:43:27.151Z,5.23
2023-03-02T12:46:36.121Z,5.30
2023-03-02T12:49:44.169Z,5.37
2023-03-02T12:52:37.709Z,5.39
2023-03-02T12:55:15.649Z,5.41
2023-03-02T12:57:51.538Z,5.43
2023-03-02T13:00:26.950Z,5.51
2023-03-02T13:02:57.184Z,5.47
2023-03-02T13:05:28.008Z,5.47
2023-03-02T13:08:00.921Z,5.54
2023-03-02T13:10:38.038Z,5.55
2023-03-02T13:13:26.865Z,5.58
2023-03-02T13:15:59.410Z,5.60
2023-03-02T13:18:32.290Z,5.64
2023-03-02T13:21:01.450Z,5.57
2023-03-02T13:23:34.014Z,5.57
2023-03-02T13:26:05.379Z,5.52
2023-03-02T13:28:36.714Z,5.49
2023-03-02T13:31:07.112Z,5.46
2023-03-02T13:33:44.236Z,5.50
2023-03-02T13:36:20.288Z,5.54
2023-03-02T13:38:59.722Z,5.55
2023-03-02T13:41:31.389Z,5.60
2023-03-02T13:44:16.629Z,5.53
2023-03-02T13:46:43.896Z,5.54
2023-03-02T13:49:11.921Z,5.56
2023-03-02T13:51:45.335Z,5.59
2023-03-02T13:54:34.645Z,5.56
2023-03-02T13:57:05.046Z,5.56
2023-03-02T13:59:36.488Z,5.56
2023-03-02T14:02:27.622Z,5.56
2023-03-02T14:04:55.795Z,5.49
2023-03-02T14:07:23.485Z,5.45
2023-03-02T14:09:51.171Z,5.42
2023-03-02T14:12:29.346Z,5.45
2023-03-02T14:15:00.327Z,5.46
2023-03-02T14:17:28.315Z,5.46
2023-03-02T14:19:56.571Z,5.46
2023-03-02T14:22:27.444Z,5.50
2023-03-02T14:24:58.057Z,5.53
2023-03-02T14:27:29.756Z,5.54
2023-03-02T14:29:57.569Z,5.52
2023-03-02T14:32:24.891Z,5.53
2023-03-02T14:34:52.425Z,5.52
2023-03-02T14:37:24.544Z,5.48
2023-03-02T14:39:55.610Z,5.45
2023-03-02T14:42:25.281Z,5.44
2023-03-02T14:44:53.099Z,5.43
2023-03-02T14:47:21.904Z,5.39
2023-03-02T14:49:49.507Z,5.37
2023-03-02T14:52:25.197Z,5.38
2023-03-02T14:54:58.728Z,5.34
2023-03-02T14:57:28.846Z,5.31
2023-03-02T14:59:59.785Z,5.24
2023-03-02T15:02:27.508Z,5.22
2023-03-02T15:04:57.309Z,5.20
2023-03-02T15:07:28.094Z,5.18
2023-03-02T15:09:57.025Z,5.08
2023-03-02T15:12:25.218Z,5.07
2023-03-02T15:14:52.770Z,5.00
2023-03-02T15:17:20.052Z,4.93
2023-03-02T15:19:47.554Z,4.92
2023-03-02T15:22:14.982Z,4.91
2023-03-02T15:24:42.496Z,4.86
2023-03-02T15:27:10.503Z,4.80
2023-03-02T15:29:37.874Z,4.76
2023-03-02T15:32:05.486Z,4.74
2023-03-02T15:34:32.847Z,4.74
2023-03-02T15:37:00.179Z,4.76
2023-03-02T15:39:27.506Z,4.76
2023-03-02T15:41:55.209Z,4.77
2023-03-02T15:44:24.448Z,4.78
2023-03-02T15:46:57.462Z,4.77
2023-03-02T15:49:28.007Z,4.74
2023-03-02T15:51:59.648Z,4.73
2023-03-02T15:54:28.262Z,4.71
2023-03-02T15:56:55.765Z,4.68
2023-03-02T15:59:25.204Z,4.64
2023-03-02T16:01:53.629Z,4.62
2023-03-02T16:04:21.322Z,4.58
2023-03-02T16:06:48.973Z,4.56
2023-03-02T16:09:17.914Z,4.54
2023-03-02T16:11:45.207Z,4.51
2023-03-02T16:14:15.636Z,4.48
2023-03-02T16:16:44.194Z,4.47
2023-03-02T16:19:14.075Z,4.45
2023-03-02T16:21:41.850Z,4.44
2023-03-02T16:24:09.539Z,4.39
2023-03-02T16:26:38.193Z,4.37
2023-03-02T16:29:08.104Z,4.32
2023-03-02T16:31:37.906Z,4.27
2023-03-02T16:34:08.416Z,4.24
2023-03-02T16:36:38.058Z,4.21
2023-03-02T16:39:06.647Z,4.15
2023-03-02T16:41:34.733Z,4.09
2023-03-02T16:44:02.208Z,4.03
2023-03-02T16:46:31.390Z,3.99
2023-03-02T16:48:58.942Z,3.92
2023-03-02T16:51:26.276Z,3.87
2023-03-02T16:53:54.669Z,3.80
2023-03-02T16:56:21.960Z,3.77
2023-03-02T16:58:51.289Z,3.73
2023-03-02T17:01:20.957Z,3.68
2023-03-02T17:03:49.995Z,3.63
2023-03-02T17:06:19.635Z,3.57
2023-03-02T17:08:47.149Z,3.54
2023-03-02T17:11:14.645Z,3.50
2023-03-02T17:13:44.591Z,3.44
2023-03-02T17:16:13.590Z,3.41
2023-03-02T17:18:41.153Z,3.38
2023-03-02T17:21:08.710Z,3.33
2023-03-02T17:23:37.103Z,3.30
2023-03-02T17:26:07.908Z,3.25
2023-03-02T17:28:35.166Z,3.22
2023-03-02T17:31:04.321Z,3.17
2023-03-02T17:33:33.940Z,3.14
2023-03-02T17:36:07.431Z,3.08
2023-03-02T17:38:34.794Z,3.05
2023-03-02T17:41:07.190Z,3.01
2023-03-02T17:43:40.983Z,2.97
2023-03-02T17:46:15.718Z,2.91
2023-03-02T17:48:44.699Z,2.87
2023-03-02T17:51:14.828Z,2.84
2023-03-02T17:53:44.234Z,2.79
2023-03-02T17:56:13.123Z,2.77
2023-03-02T17:58:45.089Z,2.72
2023-03-02T18:01:15.774Z,2.69
2023-03-02T18:03:45.134Z,2.64
2023-03-02T18:06:13.445Z,2.59
2023-03-02T18:08:41.026Z,2.54
2023-03-02T18:11:08.330Z,2.50
2023-03-02T18:13:35.935Z,2.46
2023-03-02T18:16:04.210Z,2.40
2023-03-02T18:18:31.532Z,2.38
2023-03-02T18:20:58.857Z,2.32
2023-03-02T18:23:26.248Z,2.28
2023-03-02T18:25:53.484Z,2.24
2023-03-02T18:28:21.387Z,2.21
2023-03-02T18:30:49.385Z,2.19
2023-03-02T18:33:16.602Z,2.16
2023-03-02T18:35:45.943Z,2.13
2023-03-02T18:38:13.271Z,2.11
2023-03-02T18:40:40.643Z,2.11
2023-03-02T18:43:08.276Z,2.07
2023-03-02T18:45:35.696Z,2.05
2023-03-02T18:48:04.802Z,2.00
2023-03-02T18:50:32.291Z,1.94
2023-03-02T18:53:00.962Z,1.86
2023-03-02T18:55:29.357Z,1.83
2023-03-02T18:57:56.664Z,1.78
2023-03-02T19:00:27.797Z,1.73
2023-03-02T19:02:56.927Z,1.70
2023-03-02T19:05:27.019Z,1.71
2023-03-02T19:07:54.880Z,1.72
2023-03-02T19:10:22.533Z,1.75
2023-03-02T19:12:50.761Z,1.76
2023-03-02T19:15:18.985Z,1.79
2023-03-02T19:17:47.186Z,1.81
2023-03-02T19:20:16.753Z,1.80
2023-03-02T19:22:44.049Z,1.81
2023-03-02T19:25:11.644Z,1.80
2023-03-02T19:27:39.846Z,1.84
2023-03-02T19:30:09.110Z,1.85
2023-03-02T19:32:37.437Z,1.86
2023-03-02T19:35:05.276Z,1.85
2023-03-02T19:37:33.439Z,1.83
2023-03-02T19:40:01.483Z,1.82
2023-03-02T19:42:30.431Z,1.82
2023-03-02T19:44:58.024Z,1.83
2023-03-02T19:47:25.453Z,1.83
2023-03-02T19:49:52.943Z,1.81
2023-03-02T19:52:20.295Z,1.80
2023-03-02T19:54:47.551Z,1.80
2023-03-02T19:57:14.817Z,1.82
2023-03-02T19:59:42.414Z,1.83
2023-03-02T20:02:09.860Z,1.80
2023-03-02T20:04:38.307Z,1.79
2023-03-02T20:07:05.647Z,1.80
2023-03-02T20:09:32.816Z,1.80
2023-03-02T20:12:02.445Z,1.83
2023-03-02T20:14:34.171Z,1.83
2023-03-02T20:17:04.908Z,1.83
2023-03-02T20:19:32.134Z,1.81
2023-03-02T20:21:59.442Z,1.80
2023-03-02T20:24:26.890Z,1.80
2023-03-02T20:26:54.847Z,1.83
2023-03-02T20:29:22.167Z,1.83
2023-03-02T20:31:49.567Z,1.84
2023-03-02T20:34:16.993Z,1.82
2023-03-02T20:36:44.780Z,1.82
2023-03-02T20:39:43.203Z,1.82
2023-03-02T20:42:12.250Z,1.83
2023-03-02T20:44:39.794Z,1.86
2023-03-02T20:47:09.831Z,1.81
2023-03-02T20:49:38.036Z,1.79
2023-03-02T20:52:05.922Z,1.77
2023-03-02T20:54:37.204Z,1.73
2023-03-02T20:57:06.131Z,1.72
2023-03-02T20:59:33.426Z,1.72
2023-03-02T21:02:00.904Z,1.69
2023-03-02T21:04:28.730Z,1.69
2023-03-02T21:06:56.231Z,1.66
2023-03-02T21:09:23.637Z,1.67
2023-03-02T21:11:51.180Z,1.66
2023-03-02T21:14:19.138Z,1.62
2023-03-02T21:16:46.660Z,1.59
2023-03-02T21:19:17.360Z,1.59
2023-03-02T21:21:45.994Z,1.60
2023-03-02T21:24:17.049Z,1.58
2023-03-02T21:26:49.839Z,1.58
2023-03-02T21:29:20.063Z,1.58
2023-03-02T21:31:47.935Z,1.59
2023-03-02T21:34:16.138Z,1.57
2023-03-02T21:36:43.542Z,1.56
2023-03-02T21:39:12.144Z,1.55
2023-03-02T21:41:40.505Z,1.57
2023-03-02T21:44:08.424Z,1.56
2023-03-02T21:46:39.178Z,1.56
2023-03-02T21:49:22.349Z,1.57
2023-03-02T21:51:50.628Z,1.58
2023-03-02T21:54:18.178Z,1.58
2023-03-02T21:56:51.521Z,1.59
2023-03-02T21:59:19.128Z,1.59
2023-03-02T22:01:47.000Z,1.62
2023-03-02T22:04:17.885Z,1.62
2023-03-02T22:06:45.297Z,1.61
2023-03-02T22:09:12.783Z,1.61
2023-03-02T22:11:40.374Z,1.58
2023-03-02T22:14:15.453Z,1.55
2023-03-02T22:16:46.430Z,1.55
2023-03-02T22:19:32.817Z,1.55
2023-03-02T22:22:03.262Z,1.57
2023-03-02T22:24:35.627Z,1.58
2023-03-02T22:27:27.726Z,1.59
2023-03-02T22:29:59.025Z,1.59
2023-03-02T22:32:28.101Z,1.59
2023-03-02T22:34:57.910Z,1.61
2023-03-02T22:37:30.674Z,1.62
2023-03-02T22:40:02.080Z,1.63
2023-03-02T22:42:30.961Z,1.65
2023-03-02T22:45:17.299Z,1.69
2023-03-02T22:47:49.260Z,1.71
2023-03-02T22:50:27.902Z,1.75
2023-03-02T22:53:00.456Z,1.77
2023-03-02T22:55:30.932Z,1.80
2023-03-02T22:57:58.500Z,1.81
2023-03-02T23:00:33.584Z,1.80
2023-03-02T23:03:00.909Z,1.79
2023-03-02T23:05:31.019Z,1.78
2023-03-02T23:08:22.562Z,1.78
2023-03-02T23:10:52.461Z,1.78
2023-03-02T23:13:25.181Z,1.79
2023-03-02T23:15:55.252Z,1.80
2023-03-02T23:18:25.678Z,1.79
2023-03-02T23:20:53.719Z,1.79
2023-03-02T23:23:24.276Z,1.79
2023-03-02T23:25:51.852Z,1.83
2023-03-02T23:28:19.223Z,1.83
2023-03-02T23:30:47.624Z,1.87
2023-03-02T23:33:14.864Z,1.88
2023-03-02T23:35:42.505Z,1.90
2023-03-02T23:38:10.035Z,1.92
2023-03-02T23:40:37.387Z,1.95
2023-03-02T23:43:04.650Z,1.97
2023-03-02T23:45:33.332Z,1.98
2023-03-02T23:48:00.617Z,1.99
2023-03-02T23:50:27.965Z,2.00
2023-03-02T23:52:55.193Z,1.99
2023-03-02T23:55:22.574Z,1.97
2023-03-02T23:57:49.848Z,1.98
